sensor_id;sensor_type;location;lat;lon;timestamp;P1;durP1;ratioP1;P2;durP2;ratioP2
17398;SDS011;8817;48.170;8.592;2023-04-03T00:00:29;5.67;;;5.27;;
17398;SDS011;8817;48.170;8.592;2023-04-03T00:02:56;5.90;;;5.50;;
17398;SDS011;8817;48.170;8.592;2023-04-03T00:05:23;5.20;;;4.90;;
17398;SDS011;8817;48.170;8.592;2023-04-03T00:07:51;5.53;;;5.23;;
17398;SDS011;8817;48.170;8.592;2023-04-03T00:10:18;5.53;;;5.13;;
17398;SDS011;8817;48.170;8.592;2023-04-03T00:12:46;5.60;;;5.30;;
17398;SDS011;8817;48.170;8.592;2023-04-03T00:15:13;6.00;;;5.50;;
17398;SDS011;8817;48.170;8.592;2023-04-03T00:17:40;5.70;;;5.30;;
17398;SDS011;8817;48.170;8.592;2023-04-03T00:20:07;5.40;;;5.10;;
17398;SDS011;8817;48.170;8.592;2023-04-03T00:22:34;5.80;;;5.30;;
17398;SDS011;8817;48.170;8.592;2023-04-03T00:25:01;5.80;;;5.40;;
17398;SDS011;8817;48.170;8.592;2023-04-03T00:27:28;5.70;;;5.20;;
17398;SDS011;8817;48.170;8.592;2023-04-03T00:29:57;5.57;;;5.27;;
17398;SDS011;8817;48.170;8.592;2023-04-03T00:32:23;5.50;;;5.20;;
17398;SDS011;8817;48.170;8.592;2023-04-03T00:34:50;5.70;;;5.37;;
17398;SDS011;8817;48.170;8.592;2023-04-03T00:37:17;5.57;;;5.27;;
17398;SDS011;8817;48.170;8.592;2023-04-03T00:39:44;5.83;;;5.53;;
17398;SDS011;8817;48.170;8.592;2023-04-03T00:42:11;5.70;;;5.30;;
17398;SDS011;8817;48.170;8.592;2023-04-03T00:47:43;5.20;;;4.93;;
17398;SDS011;8817;48.170;8.592;2023-04-03T00:50:10;5.30;;;5.00;;
17398;SDS011;8817;48.170;8.592;2023-04-03T00:52:37;5.63;;;5.33;;
17398;SDS011;8817;48.170;8.592;2023-04-03T00:55:05;5.20;;;4.97;;
17398;SDS011;8817;48.170;8.592;2023-04-03T00:57:34;5.57;;;5.27;;
17398;SDS011;8817;48.170;8.592;2023-04-03T01:00:03;5.57;;;5.27;;
17398;SDS011;8817;48.170;8.592;2023-04-03T01:02:34;5.77;;;5.40;;
17398;SDS011;8817;48.170;8.592;2023-04-03T01:05:03;5.53;;;5.23;;
17398;SDS011;8817;48.170;8.592;2023-04-03T01:07:31;5.20;;;4.90;;
17398;SDS011;8817;48.170;8.592;2023-04-03T01:10:03;5.70;;;5.17;;
17398;SDS011;8817;48.170;8.592;2023-04-03T01:12:32;5.90;;;5.50;;
17398;SDS011;8817;48.170;8.592;2023-04-03T01:15:02;5.60;;;5.30;;
17398;SDS011;8817;48.170;8.592;2023-04-03T01:17:32;5.90;;;5.50;;
17398;SDS011;8817;48.170;8.592;2023-04-03T01:20:14;5.63;;;5.20;;
17398;SDS011;8817;48.170;8.592;2023-04-03T01:23:11;5.40;;;5.20;;
17398;SDS011;8817;48.170;8.592;2023-04-03T01:25:51;5.27;;;5.00;;
17398;SDS011;8817;48.170;8.592;2023-04-03T01:28:21;5.60;;;5.20;;
17398;SDS011;8817;48.170;8.592;2023-04-03T01:30:50;6.23;;;5.70;;
17398;SDS011;8817;48.170;8.592;2023-04-03T01:33:26;5.50;;;5.10;;
17398;SDS011;8817;48.170;8.592;2023-04-03T01:35:53;5.80;;;5.40;;
17398;SDS011;8817;48.170;8.592;2023-04-03T01:38:20;5.47;;;5.17;;
17398;SDS011;8817;48.170;8.592;2023-04-03T01:40:46;5.57;;;5.27;;
17398;SDS011;8817;48.170;8.592;2023-04-03T01:43:13;5.60;;;5.30;;
17398;SDS011;8817;48.170;8.592;2023-04-03T01:45:40;6.07;;;5.67;;
17398;SDS011;8817;48.170;8.592;2023-04-03T01:48:07;5.47;;;5.17;;
17398;SDS011;8817;48.170;8.592;2023-04-03T01:50:35;6.37;;;5.77;;
17398;SDS011;8817;48.170;8.592;2023-04-03T01:53:02;5.60;;;5.30;;
17398;SDS011;8817;48.170;8.592;2023-04-03T01:55:29;5.90;;;5.50;;
17398;SDS011;8817;48.170;8.592;2023-04-03T01:57:56;5.73;;;5.40;;
17398;SDS011;8817;48.170;8.592;2023-04-03T02:00:23;6.50;;;6.00;;
17398;SDS011;8817;48.170;8.592;2023-04-03T02:02:51;5.90;;;5.40;;
17398;SDS011;8817;48.170;8.592;2023-04-03T02:05:18;5.83;;;5.43;;
17398;SDS011;8817;48.170;8.592;2023-04-03T02:07:46;5.93;;;5.57;;
17398;SDS011;8817;48.170;8.592;2023-04-03T02:10:13;5.63;;;5.27;;
17398;SDS011;8817;48.170;8.592;2023-04-03T02:12:40;5.57;;;5.27;;
17398;SDS011;8817;48.170;8.592;2023-04-03T02:15:07;6.00;;;5.60;;
17398;SDS011;8817;48.170;8.592;2023-04-03T02:17:35;6.20;;;5.80;;
17398;SDS011;8817;48.170;8.592;2023-04-03T02:20:02;5.83;;;5.53;;
17398;SDS011;8817;48.170;8.592;2023-04-03T02:22:29;6.20;;;5.67;;
17398;SDS011;8817;48.170;8.592;2023-04-03T02:24:58;5.70;;;5.40;;
17398;SDS011;8817;48.170;8.592;2023-04-03T02:27:25;6.73;;;5.73;;
17398;SDS011;8817;48.170;8.592;2023-04-03T02:29:53;6.10;;;5.70;;
17398;SDS011;8817;48.170;8.592;2023-04-03T02:32:19;6.13;;;5.63;;
17398;SDS011;8817;48.170;8.592;2023-04-03T02:34:46;8.67;;;5.60;;
17398;SDS011;8817;48.170;8.592;2023-04-03T02:37:13;5.87;;;5.43;;
17398;SDS011;8817;48.170;8.592;2023-04-03T02:39:40;6.00;;;5.60;;
17398;SDS011;8817;48.170;8.592;2023-04-03T02:42:09;5.40;;;5.10;;
17398;SDS011;8817;48.170;8.592;2023-04-03T02:44:36;5.60;;;5.30;;
17398;SDS011;8817;48.170;8.592;2023-04-03T02:47:04;8.90;;;5.87;;
17398;SDS011;8817;48.170;8.592;2023-04-03T02:49:31;6.17;;;5.67;;
17398;SDS011;8817;48.170;8.592;2023-04-03T02:51:58;6.30;;;5.80;;
17398;SDS011;8817;48.170;8.592;2023-04-03T02:54:25;5.80;;;5.47;;
17398;SDS011;8817;48.170;8.592;2023-04-03T02:56:53;5.53;;;5.23;;
17398;SDS011;8817;48.170;8.592;2023-04-03T02:59:21;5.77;;;5.37;;
17398;SDS011;8817;48.170;8.592;2023-04-03T03:01:48;6.10;;;5.63;;
17398;SDS011;8817;48.170;8.592;2023-04-03T03:04:15;5.80;;;5.40;;
17398;SDS011;8817;48.170;8.592;2023-04-03T03:06:42;5.60;;;5.30;;
17398;SDS011;8817;48.170;8.592;2023-04-03T03:09:09;8.37;;;6.00;;
17398;SDS011;8817;48.170;8.592;2023-04-03T03:11:37;6.53;;;6.00;;
17398;SDS011;8817;48.170;8.592;2023-04-03T03:14:04;6.27;;;5.73;;
17398;SDS011;8817;48.170;8.592;2023-04-03T03:16:33;6.10;;;5.77;;
17398;SDS011;8817;48.170;8.592;2023-04-03T03:19:00;5.67;;;5.37;;
17398;SDS011;8817;48.170;8.592;2023-04-03T03:21:28;6.40;;;5.80;;
17398;SDS011;8817;48.170;8.592;2023-04-03T03:23:55;6.10;;;5.70;;
17398;SDS011;8817;48.170;8.592;2023-04-03T03:26:21;5.87;;;5.47;;
17398;SDS011;8817;48.170;8.592;2023-04-03T03:28:48;6.50;;;6.00;;
17398;SDS011;8817;48.170;8.592;2023-04-03T03:31:15;5.63;;;5.30;;
17398;SDS011;8817;48.170;8.592;2023-04-03T03:33:44;6.60;;;6.10;;
17398;SDS011;8817;48.170;8.592;2023-04-03T03:36:10;6.40;;;5.90;;
17398;SDS011;8817;48.170;8.592;2023-04-03T03:38:37;5.60;;;5.20;;
17398;SDS011;8817;48.170;8.592;2023-04-03T03:41:05;6.43;;;6.03;;
17398;SDS011;8817;48.170;8.592;2023-04-03T03:43:31;6.17;;;5.63;;
17398;SDS011;8817;48.170;8.592;2023-04-03T03:45:58;6.10;;;5.60;;
17398;SDS011;8817;48.170;8.592;2023-04-03T03:48:25;6.17;;;5.77;;
17398;SDS011;8817;48.170;8.592;2023-04-03T03:50:53;6.90;;;5.87;;
17398;SDS011;8817;48.170;8.592;2023-04-03T03:53:20;6.20;;;5.63;;
17398;SDS011;8817;48.170;8.592;2023-04-03T03:55:47;6.53;;;5.73;;
17398;SDS011;8817;48.170;8.592;2023-04-03T03:58:14;5.57;;;5.17;;
17398;SDS011;8817;48.170;8.592;2023-04-03T04:00:41;6.50;;;5.90;;
17398;SDS011;8817;48.170;8.592;2023-04-03T04:03:08;6.50;;;5.90;;
17398;SDS011;8817;48.170;8.592;2023-04-03T04:05:35;5.50;;;5.20;;
17398;SDS011;8817;48.170;8.592;2023-04-03T04:08:03;6.33;;;5.83;;
17398;SDS011;8817;48.170;8.592;2023-04-03T04:10:30;6.40;;;5.90;;
17398;SDS011;8817;48.170;8.592;2023-04-03T04:12:57;6.43;;;5.83;;
17398;SDS011;8817;48.170;8.592;2023-04-03T04:15:24;6.23;;;5.77;;
17398;SDS011;8817;48.170;8.592;2023-04-03T04:17:51;6.07;;;5.67;;
17398;SDS011;8817;48.170;8.592;2023-04-03T04:20:19;6.63;;;6.17;;
17398;SDS011;8817;48.170;8.592;2023-04-03T04:22:46;6.33;;;5.93;;
17398;SDS011;8817;48.170;8.592;2023-04-03T04:25:14;6.90;;;6.30;;
17398;SDS011;8817;48.170;8.592;2023-04-03T04:27:41;6.43;;;5.93;;
17398;SDS011;8817;48.170;8.592;2023-04-03T04:30:08;6.37;;;5.87;;
17398;SDS011;8817;48.170;8.592;2023-04-03T04:32:36;7.10;;;6.50;;
17398;SDS011;8817;48.170;8.592;2023-04-03T04:35:03;6.90;;;6.30;;
17398;SDS011;8817;48.170;8.592;2023-04-03T04:37:30;6.73;;;6.23;;
17398;SDS011;8817;48.170;8.592;2023-04-03T04:39:58;6.87;;;6.47;;
17398;SDS011;8817;48.170;8.592;2023-04-03T04:42:26;6.33;;;5.90;;
17398;SDS011;8817;48.170;8.592;2023-04-03T04:44:53;6.20;;;5.80;;
17398;SDS011;8817;48.170;8.592;2023-04-03T04:47:20;6.87;;;6.20;;
17398;SDS011;8817;48.170;8.592;2023-04-03T04:49:47;6.07;;;5.70;;
17398;SDS011;8817;48.170;8.592;2023-04-03T04:52:14;6.50;;;6.00;;
17398;SDS011;8817;48.170;8.592;2023-04-03T04:54:40;6.40;;;6.10;;
17398;SDS011;8817;48.170;8.592;2023-04-03T04:57:07;6.67;;;6.20;;
17398;SDS011;8817;48.170;8.592;2023-04-03T04:59:37;7.23;;;6.63;;
17398;SDS011;8817;48.170;8.592;2023-04-03T05:02:04;6.80;;;6.30;;
17398;SDS011;8817;48.170;8.592;2023-04-03T05:04:30;6.67;;;6.20;;
17398;SDS011;8817;48.170;8.592;2023-04-03T05:06:58;7.07;;;6.37;;
17398;SDS011;8817;48.170;8.592;2023-04-03T05:09:25;6.30;;;5.90;;
17398;SDS011;8817;48.170;8.592;2023-04-03T05:11:52;6.80;;;6.40;;
17398;SDS011;8817;48.170;8.592;2023-04-03T05:14:19;7.17;;;6.53;;
17398;SDS011;8817;48.170;8.592;2023-04-03T05:16:47;6.27;;;5.93;;
17398;SDS011;8817;48.170;8.592;2023-04-03T05:19:17;6.37;;;5.97;;
17398;SDS011;8817;48.170;8.592;2023-04-03T05:21:45;6.20;;;5.80;;
17398;SDS011;8817;48.170;8.592;2023-04-03T05:24:11;9.87;;;6.17;;
17398;SDS011;8817;48.170;8.592;2023-04-03T05:26:38;5.93;;;5.53;;
17398;SDS011;8817;48.170;8.592;2023-04-03T05:29:05;6.90;;;6.20;;
17398;SDS011;8817;48.170;8.592;2023-04-03T05:31:32;6.67;;;5.90;;
17398;SDS011;8817;48.170;8.592;2023-04-03T05:34:01;6.47;;;6.07;;
17398;SDS011;8817;48.170;8.592;2023-04-03T05:36:28;6.33;;;5.80;;
17398;SDS011;8817;48.170;8.592;2023-04-03T05:38:54;6.53;;;6.03;;
17398;SDS011;8817;48.170;8.592;2023-04-03T05:41:22;7.03;;;6.10;;
17398;SDS011;8817;48.170;8.592;2023-04-03T05:43:49;6.43;;;6.03;;
17398;SDS011;8817;48.170;8.592;2023-04-03T05:46:17;6.33;;;5.93;;
17398;SDS011;8817;48.170;8.592;2023-04-03T05:48:45;6.50;;;6.10;;
17398;SDS011;8817;48.170;8.592;2023-04-03T05:51:15;9.37;;;6.13;;
17398;SDS011;8817;48.170;8.592;2023-04-03T05:53:43;6.70;;;6.10;;
17398;SDS011;8817;48.170;8.592;2023-04-03T05:56:12;6.17;;;5.77;;
17398;SDS011;8817;48.170;8.592;2023-04-03T05:58:40;7.03;;;6.53;;
17398;SDS011;8817;48.170;8.592;2023-04-03T06:01:07;5.70;;;5.40;;
17398;SDS011;8817;48.170;8.592;2023-04-03T06:03:34;6.17;;;5.77;;
17398;SDS011;8817;48.170;8.592;2023-04-03T06:06:02;6.47;;;5.90;;
17398;SDS011;8817;48.170;8.592;2023-04-03T06:08:32;6.47;;;5.60;;
17398;SDS011;8817;48.170;8.592;2023-04-03T06:10:59;6.30;;;5.70;;
17398;SDS011;8817;48.170;8.592;2023-04-03T06:13:27;6.17;;;5.87;;
17398;SDS011;8817;48.170;8.592;2023-04-03T06:15:54;6.50;;;6.10;;
17398;SDS011;8817;48.170;8.592;2023-04-03T06:18:22;6.20;;;5.70;;
17398;SDS011;8817;48.170;8.592;2023-04-03T06:20:49;5.93;;;5.53;;
17398;SDS011;8817;48.170;8.592;2023-04-03T06:23:16;6.23;;;5.80;;
17398;SDS011;8817;48.170;8.592;2023-04-03T06:25:44;5.67;;;5.37;;
17398;SDS011;8817;48.170;8.592;2023-04-03T06:28:12;6.07;;;5.67;;
17398;SDS011;8817;48.170;8.592;2023-04-03T06:30:39;6.00;;;5.70;;
17398;SDS011;8817;48.170;8.592;2023-04-03T06:33:06;6.30;;;5.90;;
17398;SDS011;8817;48.170;8.592;2023-04-03T06:35:33;6.23;;;5.73;;
17398;SDS011;8817;48.170;8.592;2023-04-03T06:38:00;6.50;;;5.90;;
17398;SDS011;8817;48.170;8.592;2023-04-03T06:40:29;6.50;;;5.97;;
17398;SDS011;8817;48.170;8.592;2023-04-03T06:42:57;6.40;;;6.00;;
17398;SDS011;8817;48.170;8.592;2023-04-03T06:45:24;5.70;;;5.40;;
17398;SDS011;8817;48.170;8.592;2023-04-03T06:47:51;6.27;;;5.87;;
17398;SDS011;8817;48.170;8.592;2023-04-03T06:50:18;6.33;;;5.83;;
17398;SDS011;8817;48.170;8.592;2023-04-03T06:52:45;5.83;;;5.53;;
17398;SDS011;8817;48.170;8.592;2023-04-03T06:55:12;6.37;;;5.97;;
17398;SDS011;8817;48.170;8.592;2023-04-03T06:57:39;5.23;;;4.97;;
17398;SDS011;8817;48.170;8.592;2023-04-03T07:00:08;5.93;;;5.50;;
17398;SDS011;8817;48.170;8.592;2023-04-03T07:02:36;5.83;;;5.43;;
17398;SDS011;8817;48.170;8.592;2023-04-03T07:05:04;5.93;;;5.50;;
17398;SDS011;8817;48.170;8.592;2023-04-03T07:07:31;5.90;;;5.50;;
17398;SDS011;8817;48.170;8.592;2023-04-03T07:09:59;5.33;;;5.03;;
17398;SDS011;8817;48.170;8.592;2023-04-03T07:12:26;5.87;;;5.50;;
17398;SDS011;8817;48.170;8.592;2023-04-03T07:14:52;6.23;;;5.73;;
17398;SDS011;8817;48.170;8.592;2023-04-03T07:17:21;6.50;;;5.87;;
17398;SDS011;8817;48.170;8.592;2023-04-03T07:19:48;5.43;;;5.13;;
17398;SDS011;8817;48.170;8.592;2023-04-03T07:22:15;9.03;;;5.90;;
17398;SDS011;8817;48.170;8.592;2023-04-03T07:24:42;5.77;;;5.33;;
17398;SDS011;8817;48.170;8.592;2023-04-03T07:27:09;5.73;;;5.33;;
17398;SDS011;8817;48.170;8.592;2023-04-03T07:29:37;5.90;;;5.40;;
17398;SDS011;8817;48.170;8.592;2023-04-03T07:32:05;6.20;;;5.70;;
17398;SDS011;8817;48.170;8.592;2023-04-03T07:34:33;5.87;;;5.47;;
17398;SDS011;8817;48.170;8.592;2023-04-03T07:37:00;5.43;;;5.07;;
17398;SDS011;8817;48.170;8.592;2023-04-03T07:39:28;6.27;;;5.67;;
17398;SDS011;8817;48.170;8.592;2023-04-03T07:41:54;5.53;;;5.23;;
17398;SDS011;8817;48.170;8.592;2023-04-03T07:44:21;6.33;;;5.83;;
17398;SDS011;8817;48.170;8.592;2023-04-03T07:46:48;6.17;;;5.70;;
17398;SDS011;8817;48.170;8.592;2023-04-03T07:49:15;6.00;;;5.60;;
17398;SDS011;8817;48.170;8.592;2023-04-03T07:51:44;7.03;;;5.50;;
17398;SDS011;8817;48.170;8.592;2023-04-03T07:54:11;5.97;;;5.30;;
17398;SDS011;8817;48.170;8.592;2023-04-03T07:56:38;5.67;;;5.37;;
17398;SDS011;8817;48.170;8.592;2023-04-03T07:59:05;5.47;;;5.07;;
17398;SDS011;8817;48.170;8.592;2023-04-03T08:01:32;5.30;;;5.00;;
17398;SDS011;8817;48.170;8.592;2023-04-03T08:03:59;5.17;;;4.93;;
17398;SDS011;8817;48.170;8.592;2023-04-03T08:06:27;5.10;;;4.90;;
17398;SDS011;8817;48.170;8.592;2023-04-03T08:08:56;5.60;;;5.20;;
17398;SDS011;8817;48.170;8.592;2023-04-03T08:11:24;5.20;;;5.00;;
17398;SDS011;8817;48.170;8.592;2023-04-03T08:13:51;5.10;;;4.80;;
17398;SDS011;8817;48.170;8.592;2023-04-03T08:16:20;4.77;;;4.57;;
17398;SDS011;8817;48.170;8.592;2023-04-03T08:18:50;4.87;;;4.67;;
17398;SDS011;8817;48.170;8.592;2023-04-03T08:21:17;4.77;;;4.60;;
17398;SDS011;8817;48.170;8.592;2023-04-03T08:23:44;4.77;;;4.57;;
17398;SDS011;8817;48.170;8.592;2023-04-03T08:26:16;4.60;;;4.40;;
17398;SDS011;8817;48.170;8.592;2023-04-03T08:28:45;4.70;;;4.50;;
17398;SDS011;8817;48.170;8.592;2023-04-03T08:31:13;5.10;;;4.80;;
17398;SDS011;8817;48.170;8.592;2023-04-03T08:33:42;4.60;;;4.40;;
17398;SDS011;8817;48.170;8.592;2023-04-03T08:36:16;4.73;;;4.53;;
17398;SDS011;8817;48.170;8.592;2023-04-03T08:38:43;4.80;;;4.60;;
17398;SDS011;8817;48.170;8.592;2023-04-03T08:41:12;4.80;;;4.60;;
17398;SDS011;8817;48.170;8.592;2023-04-03T08:43:51;5.63;;;4.80;;
17398;SDS011;8817;48.170;8.592;2023-04-03T08:46:25;5.43;;;5.07;;
17398;SDS011;8817;48.170;8.592;2023-04-03T08:49:02;4.73;;;4.53;;
17398;SDS011;8817;48.170;8.592;2023-04-03T08:51:29;4.73;;;4.53;;
17398;SDS011;8817;48.170;8.592;2023-04-03T08:53:59;5.00;;;4.80;;
17398;SDS011;8817;48.170;8.592;2023-04-03T08:56:30;4.90;;;4.70;;
17398;SDS011;8817;48.170;8.592;2023-04-03T08:59:00;4.87;;;4.67;;
17398;SDS011;8817;48.170;8.592;2023-04-03T09:01:33;5.13;;;4.87;;
17398;SDS011;8817;48.170;8.592;2023-04-03T09:04:02;5.23;;;4.93;;
17398;SDS011;8817;48.170;8.592;2023-04-03T09:06:36;5.17;;;4.90;;
17398;SDS011;8817;48.170;8.592;2023-04-03T09:09:08;5.23;;;5.03;;
17398;SDS011;8817;48.170;8.592;2023-04-03T09:11:46;5.77;;;5.27;;
17398;SDS011;8817;48.170;8.592;2023-04-03T09:14:22;5.20;;;5.00;;
17398;SDS011;8817;48.170;8.592;2023-04-03T09:16:57;5.27;;;4.97;;
17398;SDS011;8817;48.170;8.592;2023-04-03T09:19:31;5.00;;;4.80;;
17398;SDS011;8817;48.170;8.592;2023-04-03T09:22:09;4.90;;;4.63;;
17398;SDS011;8817;48.170;8.592;2023-04-03T09:24:43;5.10;;;4.90;;
17398;SDS011;8817;48.170;8.592;2023-04-03T09:27:13;5.43;;;5.13;;
17398;SDS011;8817;48.170;8.592;2023-04-03T09:29:41;5.23;;;4.93;;
17398;SDS011;8817;48.170;8.592;2023-04-03T09:32:18;5.47;;;5.17;;
17398;SDS011;8817;48.170;8.592;2023-04-03T09:34:47;12.70;;;5.20;;
17398;SDS011;8817;48.170;8.592;2023-04-03T09:40:03;5.47;;;5.00;;
17398;SDS011;8817;48.170;8.592;2023-04-03T09:42:32;5.43;;;5.07;;
17398;SDS011;8817;48.170;8.592;2023-04-03T09:45:05;5.00;;;4.80;;
17398;SDS011;8817;48.170;8.592;2023-04-03T09:47:46;4.97;;;4.73;;
17398;SDS011;8817;48.170;8.592;2023-04-03T09:50:20;5.00;;;4.70;;
17398;SDS011;8817;48.170;8.592;2023-04-03T09:52:48;4.97;;;4.77;;
17398;SDS011;8817;48.170;8.592;2023-04-03T09:55:17;5.13;;;4.83;;
17398;SDS011;8817;48.170;8.592;2023-04-03T09:57:48;5.13;;;4.83;;
17398;SDS011;8817;48.170;8.592;2023-04-03T10:00:20;5.13;;;4.83;;
17398;SDS011;8817;48.170;8.592;2023-04-03T10:02:49;5.10;;;4.80;;
17398;SDS011;8817;48.170;8.592;2023-04-03T10:05:29;5.20;;;4.90;;
17398;SDS011;8817;48.170;8.592;2023-04-03T10:08:19;5.60;;;5.20;;
17398;SDS011;8817;48.170;8.592;2023-04-03T10:11:05;5.30;;;5.10;;
17398;SDS011;8817;48.170;8.592;2023-04-03T10:13:36;5.20;;;4.90;;
17398;SDS011;8817;48.170;8.592;2023-04-03T10:16:16;5.10;;;4.90;;
17398;SDS011;8817;48.170;8.592;2023-04-03T10:18:45;5.10;;;4.80;;
17398;SDS011;8817;48.170;8.592;2023-04-03T10:21:24;5.37;;;4.97;;
17398;SDS011;8817;48.170;8.592;2023-04-03T10:24:03;5.00;;;4.70;;
17398;SDS011;8817;48.170;8.592;2023-04-03T10:26:37;5.30;;;5.00;;
17398;SDS011;8817;48.170;8.592;2023-04-03T10:29:15;5.57;;;5.03;;
17398;SDS011;8817;48.170;8.592;2023-04-03T10:31:50;5.27;;;4.87;;
17398;SDS011;8817;48.170;8.592;2023-04-03T10:34:28;4.73;;;4.53;;
17398;SDS011;8817;48.170;8.592;2023-04-03T10:37:00;5.10;;;4.80;;
17398;SDS011;8817;48.170;8.592;2023-04-03T10:39:36;4.97;;;4.77;;
17398;SDS011;8817;48.170;8.592;2023-04-03T10:42:10;5.53;;;5.13;;
17398;SDS011;8817;48.170;8.592;2023-04-03T10:44:49;5.00;;;4.80;;
17398;SDS011;8817;48.170;8.592;2023-04-03T10:47:44;5.60;;;5.30;;
17398;SDS011;8817;48.170;8.592;2023-04-03T10:50:26;5.00;;;4.77;;
17398;SDS011;8817;48.170;8.592;2023-04-03T10:53:00;5.40;;;5.10;;
17398;SDS011;8817;48.170;8.592;2023-04-03T10:55:34;4.93;;;4.73;;
17398;SDS011;8817;48.170;8.592;2023-04-03T10:58:05;5.53;;;5.23;;
17398;SDS011;8817;48.170;8.592;2023-04-03T11:00:39;5.60;;;5.30;;
17398;SDS011;8817;48.170;8.592;2023-04-03T11:03:11;5.03;;;4.73;;
17398;SDS011;8817;48.170;8.592;2023-04-03T11:05:42;5.57;;;5.27;;
17398;SDS011;8817;48.170;8.592;2023-04-03T11:08:12;5.63;;;5.37;;
17398;SDS011;8817;48.170;8.592;2023-04-03T11:10:48;4.80;;;4.60;;
17398;SDS011;8817;48.170;8.592;2023-04-03T11:13:17;5.10;;;4.90;;
17398;SDS011;8817;48.170;8.592;2023-04-03T11:15:49;4.87;;;4.67;;
17398;SDS011;8817;48.170;8.592;2023-04-03T11:18:21;5.27;;;4.97;;
17398;SDS011;8817;48.170;8.592;2023-04-03T11:21:06;5.77;;;5.37;;
17398;SDS011;8817;48.170;8.592;2023-04-03T11:23:38;5.07;;;4.70;;
17398;SDS011;8817;48.170;8.592;2023-04-03T11:26:08;5.40;;;5.10;;
17398;SDS011;8817;48.170;8.592;2023-04-03T11:28:37;5.73;;;5.20;;
17398;SDS011;8817;48.170;8.592;2023-04-03T11:31:09;5.50;;;5.10;;
17398;SDS011;8817;48.170;8.592;2023-04-03T11:33:47;5.00;;;4.80;;
17398;SDS011;8817;48.170;8.592;2023-04-03T11:36:22;5.40;;;5.10;;
17398;SDS011;8817;48.170;8.592;2023-04-03T11:38:51;5.30;;;5.07;;
17398;SDS011;8817;48.170;8.592;2023-04-03T11:41:26;5.13;;;4.83;;
17398;SDS011;8817;48.170;8.592;2023-04-03T11:43:56;5.40;;;5.20;;
17398;SDS011;8817;48.170;8.592;2023-04-03T11:55:44;5.00;;;4.70;;
17398;SDS011;8817;48.170;8.592;2023-04-03T11:58:19;4.87;;;4.63;;
17398;SDS011;8817;48.170;8.592;2023-04-03T12:00:51;5.53;;;5.17;;
17398;SDS011;8817;48.170;8.592;2023-04-03T12:06:42;5.60;;;5.30;;
17398;SDS011;8817;48.170;8.592;2023-04-03T12:09:23;5.00;;;4.80;;
17398;SDS011;8817;48.170;8.592;2023-04-03T12:11:53;5.20;;;4.90;;
17398;SDS011;8817;48.170;8.592;2023-04-03T12:14:22;4.90;;;4.70;;
17398;SDS011;8817;48.170;8.592;2023-04-03T12:16:52;5.10;;;4.90;;
17398;SDS011;8817;48.170;8.592;2023-04-03T12:22:15;7.47;;;5.50;;
17398;SDS011;8817;48.170;8.592;2023-04-03T12:24:45;5.53;;;5.00;;
17398;SDS011;8817;48.170;8.592;2023-04-03T12:30:12;4.73;;;4.53;;
17398;SDS011;8817;48.170;8.592;2023-04-03T12:33:02;5.10;;;4.80;;
17398;SDS011;8817;48.170;8.592;2023-04-03T12:35:46;5.27;;;4.97;;
17398;SDS011;8817;48.170;8.592;2023-04-03T12:41:36;4.93;;;4.73;;
17398;SDS011;8817;48.170;8.592;2023-04-03T12:44:11;5.30;;;4.90;;
17398;SDS011;8817;48.170;8.592;2023-04-03T12:46:54;4.93;;;4.70;;
17398;SDS011;8817;48.170;8.592;2023-04-03T12:49:35;5.87;;;5.47;;
17398;SDS011;8817;48.170;8.592;2023-04-03T12:52:12;5.00;;;4.80;;
17398;SDS011;8817;48.170;8.592;2023-04-03T12:54:45;5.87;;;5.37;;
17398;SDS011;8817;48.170;8.592;2023-04-03T12:57:16;5.03;;;4.83;;
17398;SDS011;8817;48.170;8.592;2023-04-03T12:59:44;5.63;;;5.23;;
17398;SDS011;8817;48.170;8.592;2023-04-03T13:02:22;5.67;;;5.17;;
17398;SDS011;8817;48.170;8.592;2023-04-03T13:04:51;5.23;;;4.93;;
17398;SDS011;8817;48.170;8.592;2023-04-03T13:07:24;5.00;;;4.80;;
17398;SDS011;8817;48.170;8.592;2023-04-03T13:09:57;5.60;;;5.30;;
17398;SDS011;8817;48.170;8.592;2023-04-03T13:12:25;5.50;;;5.10;;
17398;SDS011;8817;48.170;8.592;2023-04-03T13:14:52;5.23;;;4.93;;
17398;SDS011;8817;48.170;8.592;2023-04-03T13:17:21;5.50;;;5.20;;
17398;SDS011;8817;48.170;8.592;2023-04-03T13:19:48;5.67;;;5.37;;
17398;SDS011;8817;48.170;8.592;2023-04-03T13:22:25;5.37;;;5.07;;
17398;SDS011;8817;48.170;8.592;2023-04-03T13:24:55;5.03;;;4.83;;
17398;SDS011;8817;48.170;8.592;2023-04-03T13:27:26;5.50;;;5.20;;
17398;SDS011;8817;48.170;8.592;2023-04-03T13:29:54;5.60;;;5.20;;
17398;SDS011;8817;48.170;8.592;2023-04-03T13:32:26;5.80;;;5.40;;
17398;SDS011;8817;48.170;8.592;2023-04-03T13:34:55;5.43;;;5.07;;
17398;SDS011;8817;48.170;8.592;2023-04-03T13:37:23;5.23;;;4.93;;
17398;SDS011;8817;48.170;8.592;2023-04-03T13:40:00;5.50;;;5.10;;
17398;SDS011;8817;48.170;8.592;2023-04-03T13:42:30;5.60;;;5.20;;
17398;SDS011;8817;48.170;8.592;2023-04-03T13:47:53;5.13;;;4.83;;
17398;SDS011;8817;48.170;8.592;2023-04-03T13:50:33;5.17;;;4.97;;
17398;SDS011;8817;48.170;8.592;2023-04-03T13:53:22;5.53;;;5.13;;
17398;SDS011;8817;48.170;8.592;2023-04-03T13:55:55;5.23;;;4.97;;
17398;SDS011;8817;48.170;8.592;2023-04-03T13:58:25;5.00;;;4.70;;
17398;SDS011;8817;48.170;8.592;2023-04-03T14:00:54;5.30;;;5.00;;
17398;SDS011;8817;48.170;8.592;2023-04-03T14:03:23;5.57;;;5.27;;
17398;SDS011;8817;48.170;8.592;2023-04-03T14:05:54;5.00;;;4.80;;
17398;SDS011;8817;48.170;8.592;2023-04-03T14:08:22;5.17;;;4.77;;
17398;SDS011;8817;48.170;8.592;2023-04-03T14:10:49;5.20;;;4.90;;
17398;SDS011;8817;48.170;8.592;2023-04-03T14:13:18;5.23;;;4.93;;
17398;SDS011;8817;48.170;8.592;2023-04-03T14:15:46;5.37;;;4.97;;
17398;SDS011;8817;48.170;8.592;2023-04-03T14:18:16;5.10;;;4.80;;
17398;SDS011;8817;48.170;8.592;2023-04-03T14:20:45;5.17;;;4.87;;
17398;SDS011;8817;48.170;8.592;2023-04-03T14:23:13;5.27;;;4.80;;
17398;SDS011;8817;48.170;8.592;2023-04-03T14:25:41;5.40;;;5.00;;
17398;SDS011;8817;48.170;8.592;2023-04-03T14:28:14;7.50;;;6.23;;
17398;SDS011;8817;48.170;8.592;2023-04-03T14:30:43;5.30;;;5.00;;
17398;SDS011;8817;48.170;8.592;2023-04-03T14:33:12;4.73;;;4.53;;
17398;SDS011;8817;48.170;8.592;2023-04-03T14:35:41;5.57;;;5.17;;
17398;SDS011;8817;48.170;8.592;2023-04-03T14:38:20;4.70;;;4.50;;
17398;SDS011;8817;48.170;8.592;2023-04-03T14:40:51;4.73;;;4.53;;
17398;SDS011;8817;48.170;8.592;2023-04-03T14:43:19;4.90;;;4.70;;
17398;SDS011;8817;48.170;8.592;2023-04-03T14:45:47;4.90;;;4.70;;
17398;SDS011;8817;48.170;8.592;2023-04-03T14:48:17;5.20;;;4.80;;
17398;SDS011;8817;48.170;8.592;2023-04-03T14:50:46;4.70;;;4.50;;
17398;SDS011;8817;48.170;8.592;2023-04-03T14:53:13;5.27;;;4.93;;
17398;SDS011;8817;48.170;8.592;2023-04-03T14:55:42;5.00;;;4.70;;
17398;SDS011;8817;48.170;8.592;2023-04-03T14:58:14;4.90;;;4.70;;
17398;SDS011;8817;48.170;8.592;2023-04-03T15:00:42;4.80;;;4.60;;
17398;SDS011;8817;48.170;8.592;2023-04-03T15:03:12;4.60;;;4.40;;
17398;SDS011;8817;48.170;8.592;2023-04-03T15:05:41;5.97;;;4.57;;
17398;SDS011;8817;48.170;8.592;2023-04-03T15:08:13;6.50;;;4.40;;
17398;SDS011;8817;48.170;8.592;2023-04-03T15:10:45;4.80;;;4.60;;
17398;SDS011;8817;48.170;8.592;2023-04-03T15:13:14;4.83;;;4.53;;
17398;SDS011;8817;48.170;8.592;2023-04-03T15:15:41;4.63;;;4.33;;
17398;SDS011;8817;48.170;8.592;2023-04-03T15:18:10;4.90;;;4.60;;
17398;SDS011;8817;48.170;8.592;2023-04-03T15:20:41;4.30;;;4.10;;
17398;SDS011;8817;48.170;8.592;2023-04-03T15:23:09;5.67;;;4.80;;
17398;SDS011;8817;48.170;8.592;2023-04-03T15:25:37;4.80;;;4.60;;
17398;SDS011;8817;48.170;8.592;2023-04-03T15:28:04;4.63;;;4.40;;
17398;SDS011;8817;48.170;8.592;2023-04-03T15:30:33;4.90;;;4.60;;
17398;SDS011;8817;48.170;8.592;2023-04-03T15:33:05;4.50;;;4.30;;
17398;SDS011;8817;48.170;8.592;2023-04-03T15:35:32;4.73;;;4.53;;
17398;SDS011;8817;48.170;8.592;2023-04-03T15:37:59;4.80;;;4.60;;
17398;SDS011;8817;48.170;8.592;2023-04-03T15:40:26;5.87;;;4.50;;
17398;SDS011;8817;48.170;8.592;2023-04-03T15:42:53;4.83;;;4.63;;
17398;SDS011;8817;48.170;8.592;2023-04-03T15:45:20;4.90;;;4.60;;